Time;durP1;ratioP1;P1;durP2;ratioP2;P2;SDS_P1;SDS_P2;PMS_P1;PMS_P2;Temp;Humidity;BMP_temperature;BMP_pressure;BME280_temperature;BME280_humidity;BME280_pressure;Samples;Min_cycle;Max_cycle;Signal;HPM_P1;HPM_P2
2021/04/17 00:01:33;;;;;;;9.90;5.87;;;2.60;71.40;;;;;;5054132;28;20186;-83
2021/04/17 00:03:59;;;;;;;8.93;5.07;;;2.80;70.90;;;;;;5052890;28;20182;-83
2021/04/17 00:06:25;;;;;;;15.63;4.90;;;2.90;70.30;;;;;;5052909;28;20184;-83
2021/04/17 00:08:51;;;;;;;16.07;5.53;;;2.90;70.00;;;;;;5052914;28;20180;-83
2021/04/17 00:11:16;;;;;;;11.37;5.20;;;2.90;70.00;;;;;;5052466;28;20215;-83
2021/04/17 00:13:43;;;;;;;7.40;5.43;;;2.90;69.90;;;;;;5052675;28;20204;-83
2021/04/17 00:16:08;;;;;;;12.80;5.50;;;2.90;70.20;;;;;;5054127;28;20183;-83
2021/04/17 00:18:34;;;;;;;10.37;5.23;;;2.80;70.30;;;;;;5052571;28;20175;-83
2021/04/17 00:21:00;;;;;;;8.37;5.43;;;2.80;70.00;;;;;;5052470;28;20195;-83
2021/04/17 00:23:25;;;;;;;12.60;5.27;;;2.80;70.30;;;;;;5053670;28;20175;-83
2021/04/17 00:25:51;;;;;;;9.87;4.80;;;2.80;70.10;;;;;;5053708;28;20227;-83
2021/04/17 00:28:17;;;;;;;13.20;5.57;;;2.80;70.10;;;;;;5053678;28;20187;-83
2021/04/17 00:30:43;;;;;;;11.40;5.60;;;2.80;69.70;;;;;;5052202;28;20592;-83
2021/04/17 00:33:09;;;;;;;9.47;5.37;;;2.80;69.60;;;;;;5052275;28;20539;-84
2021/04/17 00:35:35;;;;;;;9.50;5.10;;;2.90;69.50;;;;;;5053735;28;20176;-84
2021/04/17 00:38:01;;;;;;;6.90;4.80;;;2.90;69.20;;;;;;5053882;28;20200;-84
2021/04/17 00:40:26;;;;;;;7.97;4.57;;;2.90;69.20;;;;;;5052142;28;20566;-83
2021/04/17 00:42:52;;;;;;;10.67;5.40;;;2.80;69.30;;;;;;5053391;28;20197;-83
2021/04/17 00:45:18;;;;;;;10.23;4.93;;;2.80;69.50;;;;;;5052248;28;20179;-83
2021/04/17 00:47:44;;;;;;;8.53;5.30;;;2.80;70.20;;;;;;5052075;28;20706;-83
2021/04/17 00:50:10;;;;;;;10.80;5.10;;;2.70;71.50;;;;;;5051932;28;20268;-84
2021/04/17 00:52:36;;;;;;;9.87;4.60;;;2.50;71.90;;;;;;5053308;28;20197;-83
2021/04/17 00:55:02;;;;;;;9.63;5.13;;;2.40;72.40;;;;;;5053373;28;20648;-84
2021/04/17 00:57:28;;;;;;;9.70;4.50;;;2.40;72.20;;;;;;5053136;28;20179;-83
2021/04/17 00:59:54;;;;;;;7.53;5.20;;;2.30;71.90;;;;;;5053700;28;20272;-83
2021/04/17 01:02:28;;;;;;;7.70;4.43;;;2.30;71.30;;;;;;5053225;28;20639;-83
2021/04/17 01:04:56;;;;;;;10.70;5.20;;;2.30;70.90;;;;;;5051972;28;20176;-83
2021/04/17 01:07:48;;;;;;;9.10;4.80;;;2.20;70.80;;;;;;5051834;28;20190;-84
2021/04/17 01:10:23;;;;;;;7.17;4.60;;;2.20;70.70;;;;;;5049754;28;22192;-83
2021/04/17 01:12:54;;;;;;;9.33;5.33;;;2.00;70.80;;;;;;5053069;28;20700;-83
2021/04/17 01:15:20;;;;;;;8.97;5.37;;;2.00;70.80;;;;;;5051782;28;20295;-83
2021/04/17 01:17:49;;;;;;;10.13;5.27;;;1.90;71.00;;;;;;5051754;28;20185;-83
2021/04/17 01:20:21;;;;;;;8.23;5.07;;;1.90;70.90;;;;;;5051669;28;20557;-83
2021/04/17 01:23:08;;;;;;;9.83;5.70;;;1.90;70.60;;;;;;5052987;28;20181;-83
2021/04/17 01:25:42;;;;;;;7.50;4.70;;;1.90;70.50;;;;;;5051604;28;20272;-83
2021/04/17 01:28:08;;;;;;;7.07;5.30;;;1.90;71.10;;;;;;5053018;28;20156;-83
2021/04/17 01:30:34;;;;;;;8.00;5.27;;;1.90;70.70;;;;;;5051538;28;20559;-83
2021/04/17 01:32:59;;;;;;;9.63;5.40;;;2.00;71.00;;;;;;5052912;28;20227;-83
2021/04/17 01:35:25;;;;;;;12.33;5.73;;;2.00;71.40;;;;;;5052959;28;20178;-83
2021/04/17 01:37:51;;;;;;;10.70;5.73;;;2.10;71.70;;;;;;5052778;28;20591;-83
2021/04/17 01:40:18;;;;;;;7.50;5.23;;;2.10;71.80;;;;;;5052686;28;20197;-83
2021/04/17 01:42:44;;;;;;;11.77;6.10;;;2.20;72.20;;;;;;5052786;28;20178;-83
2021/04/17 01:45:12;;;;;;;10.47;5.87;;;2.20;72.20;;;;;;5051458;28;20661;-83
2021/04/17 01:47:38;;;;;;;9.57;4.90;;;2.20;72.20;;;;;;5052501;28;20179;-83
2021/04/17 01:50:06;;;;;;;9.50;5.93;;;2.20;72.30;;;;;;5055222;28;20206;-83
2021/04/17 01:52:32;;;;;;;9.13;4.90;;;2.20;72.40;;;;;;5055323;28;20175;-83
2021/04/17 01:54:59;;;;;;;10.47;5.50;;;2.30;72.80;;;;;;5056510;28;20231;-83
2021/04/17 01:57:27;;;;;;;12.83;5.27;;;2.20;73.40;;;;;;5055301;28;20175;-83
2021/04/17 01:59:53;;;;;;;11.40;5.80;;;2.30;73.60;;;;;;5056420;28;20175;-83
2021/04/17 02:02:18;;;;;;;8.43;4.87;;;2.30;73.40;;;;;;5056448;28;20175;-83
2021/04/17 02:04:44;;;;;;;7.80;5.13;;;2.30;73.10;;;;;;5056419;28;20548;-84
2021/04/17 02:07:10;;;;;;;10.27;5.30;;;2.30;72.50;;;;;;5055097;28;20177;-83
2021/04/17 02:09:36;;;;;;;9.50;4.77;;;2.30;72.20;;;;;;5054974;28;20178;-83
2021/04/17 02:12:02;;;;;;;8.03;5.17;;;2.30;72.50;;;;;;5056057;28;20210;-83
2021/04/17 02:14:28;;;;;;;7.27;4.60;;;2.20;72.90;;;;;;5056218;28;20224;-83
2021/04/17 02:17:00;;;;;;;7.67;5.00;;;2.20;73.40;;;;;;5054839;28;20178;-83
2021/04/17 02:19:34;;;;;;;5.93;4.57;;;2.20;73.10;;;;;;5056067;28;20168;-83
2021/04/17 02:22:00;;;;;;;9.83;4.63;;;2.10;73.40;;;;;;5054935;28;20568;-83
2021/04/17 02:24:29;;;;;;;8.03;4.03;;;2.20;73.10;;;;;;5056077;28;20168;-83
2021/04/17 02:26:56;;;;;;;10.40;4.33;;;2.20;73.10;;;;;;5054745;28;20728;-84
2021/04/17 02:29:22;;;;;;;8.83;4.80;;;2.20;72.70;;;;;;5054699;28;20182;-83
2021/04/17 02:31:48;;;;;;;7.27;4.43;;;2.30;72.70;;;;;;5055704;28;20196;-83
2021/04/17 02:34:15;;;;;;;6.83;4.57;;;2.30;72.70;;;;;;5055816;28;20178;-83
2021/04/17 02:36:41;;;;;;;10.87;4.80;;;2.30;73.10;;;;;;5055761;28;20541;-83
2021/04/17 02:39:06;;;;;;;7.53;4.43;;;2.40;72.70;;;;;;5054416;28;20171;-83
2021/04/17 02:41:32;;;;;;;11.70;5.30;;;2.40;72.70;;;;;;5055734;28;20190;-83
2021/04/17 02:43:58;;;;;;;8.70;5.33;;;2.50;72.50;;;;;;5054397;28;20652;-84
2021/04/17 02:46:23;;;;;;;8.80;4.50;;;2.50;72.70;;;;;;5054361;28;20241;-84
2021/04/17 02:48:49;;;;;;;9.00;4.57;;;2.60;72.40;;;;;;5055624;28;20171;-83
2021/04/17 02:51:15;;;;;;;9.93;4.80;;;2.60;71.90;;;;;;5055398;28;20635;-84
2021/04/17 02:53:40;;;;;;;10.63;4.67;;;2.70;72.30;;;;;;5055435;28;20174;-83
2021/04/17 02:56:06;;;;;;;7.83;4.33;;;2.80;72.70;;;;;;5055677;28;20169;-83
2021/04/17 02:58:32;;;;;;;11.80;4.93;;;2.80;72.60;;;;;;5053448;28;20170;-84
2021/04/17 03:00:58;;;;;;;6.87;4.53;;;2.80;72.60;;;;;;5054604;28;20189;-83
2021/04/17 03:03:24;;;;;;;8.77;4.47;;;2.80;72.50;;;;;;5054054;28;20654;-83
2021/04/17 03:05:49;;;;;;;5.13;4.23;;;2.90;72.70;;;;;;5053990;28;20217;-84
2021/04/17 03:08:15;;;;;;;8.60;5.37;;;3.00;72.90;;;;;;5053887;28;20676;-83
2021/04/17 03:10:41;;;;;;;8.87;4.90;;;3.00;72.50;;;;;;5053693;28;20217;-83
2021/04/17 03:13:07;;;;;;;8.10;4.70;;;3.00;72.50;;;;;;5055140;28;20249;-83
2021/04/17 03:15:33;;;;;;;13.20;5.67;;;3.00;72.50;;;;;;5053851;28;20303;-83
2021/04/17 03:17:59;;;;;;;8.93;5.30;;;3.00;73.30;;;;;;5055020;28;20213;-83
2021/04/17 03:20:25;;;;;;;7.03;5.07;;;3.00;72.80;;;;;;5054884;28;20200;-83
2021/04/17 03:22:50;;;;;;;8.63;4.67;;;3.10;73.20;;;;;;5054998;28;20227;-84
2021/04/17 03:25:16;;;;;;;6.87;4.33;;;3.10;72.60;;;;;;5054862;28;20192;-83
2021/04/17 03:27:43;;;;;;;9.47;4.70;;;3.10;72.50;;;;;;5054752;28;20178;-83
2021/04/17 03:30:11;;;;;;;7.23;5.00;;;3.10;72.20;;;;;;5053342;28;20679;-83
2021/04/17 03:32:37;;;;;;;13.00;5.07;;;3.10;72.10;;;;;;5054727;28;20170;-83
2021/04/17 03:35:05;;;;;;;11.80;4.60;;;3.10;72.20;;;;;;5053485;28;20183;-84
2021/04/17 03:37:31;;;;;;;8.60;5.07;;;3.10;72.70;;;;;;5054598;28;20184;-83
2021/04/17 03:39:56;;;;;;;8.53;5.33;;;3.20;73.00;;;;;;5054556;28;20191;-83
2021/04/17 03:42:22;;;;;;;8.50;4.97;;;3.20;72.60;;;;;;5054713;28;20182;-83
2021/04/17 03:44:47;;;;;;;9.17;4.50;;;3.20;72.40;;;;;;5053198;28;20180;-83
2021/04/17 03:47:13;;;;;;;10.50;4.53;;;3.30;72.10;;;;;;5054459;28;20188;-83
2021/04/17 03:49:39;;;;;;;9.77;4.70;;;3.30;71.60;;;;;;5053148;28;20183;-83
2021/04/17 03:52:05;;;;;;;8.27;4.63;;;3.30;71.70;;;;;;5054590;28;20255;-83
2021/04/17 03:54:30;;;;;;;14.63;5.07;;;3.30;72.00;;;;;;5053040;28;20214;-84
2021/04/17 03:56:56;;;;;;;10.83;4.87;;;3.40;72.10;;;;;;5052991;28;20176;-84
2021/04/17 03:59:22;;;;;;;10.77;5.23;;;3.40;71.80;;;;;;5052946;28;20644;-83
2021/04/17 04:01:47;;;;;;;8.00;4.70;;;3.40;71.70;;;;;;5052881;28;20198;-83
2021/04/17 04:04:13;;;;;;;8.17;4.60;;;3.50;71.90;;;;;;5054143;28;20178;-83
2021/04/17 04:06:40;;;;;;;8.27;4.93;;;3.50;71.50;;;;;;5054383;28;20185;-84
2021/04/17 04:09:06;;;;;;;8.67;4.60;;;3.60;71.40;;;;;;5054257;28;20176;-84
2021/04/17 04:11:31;;;;;;;10.00;4.70;;;3.60;71.30;;;;;;5053396;28;20570;-84
2021/04/17 04:13:57;;;;;;;9.97;4.00;;;3.60;71.40;;;;;;5053855;28;20695;-83
2021/04/17 04:16:23;;;;;;;8.17;4.37;;;3.70;71.00;;;;;;5053859;28;20230;-83
2021/04/17 04:18:48;;;;;;;7.27;4.17;;;3.70;70.60;;;;;;5053848;28;20182;-83
2021/04/17 04:21:14;;;;;;;8.03;4.10;;;3.80;70.10;;;;;;5053689;28;20199;-83
2021/04/17 04:23:39;;;;;;;8.77;4.03;;;3.80;69.60;;;;;;5052542;28;20205;-84
2021/04/17 04:26:05;;;;;;;8.47;4.73;;;3.90;69.30;;;;;;5053814;28;20174;-84
2021/04/17 04:28:31;;;;;;;6.80;4.30;;;3.90;69.70;;;;;;5052463;28;20188;-84
2021/04/17 04:30:56;;;;;;;6.70;3.87;;;3.90;70.00;;;;;;5052352;28;20215;-84
2021/04/17 04:33:22;;;;;;;6.90;3.97;;;3.80;70.20;;;;;;5053663;28;20168;-84
2021/04/17 04:35:49;;;;;;;7.87;4.17;;;3.80;70.60;;;;;;5052318;28;20278;-83
2021/04/17 04:38:15;;;;;;;6.13;3.50;;;3.80;70.50;;;;;;5054073;28;20193;-83
2021/04/17 04:40:41;;;;;;;5.23;4.20;;;3.80;70.60;;;;;;5052113;28;20338;-83
2021/04/17 04:43:09;;;;;;;6.67;4.10;;;3.70;70.70;;;;;;5053456;28;20177;-83
2021/04/17 04:45:35;;;;;;;6.17;4.40;;;3.70;70.60;;;;;;5053380;28;20236;-83
2021/04/17 04:48:00;;;;;;;8.53;4.33;;;3.70;70.60;;;;;;5053614;28;20209;-83
2021/04/17 04:50:26;;;;;;;8.57;4.27;;;3.60;70.90;;;;;;5051943;28;20210;-83
2021/04/17 04:52:52;;;;;;;9.60;4.13;;;3.60;70.90;;;;;;5052100;28;20183;-83
2021/04/17 04:55:17;;;;;;;7.03;4.23;;;3.50;71.30;;;;;;5052014;28;20183;-83
2021/04/17 04:57:43;;;;;;;5.93;3.73;;;3.60;71.40;;;;;;5053240;28;20254;-83
2021/04/17 05:00:09;;;;;;;8.47;4.40;;;3.50;71.60;;;;;;5053166;28;20564;-83
2021/04/17 05:02:35;;;;;;;6.53;4.07;;;3.50;71.30;;;;;;5053094;28;20611;-83
2021/04/17 05:05:01;;;;;;;8.70;3.60;;;3.60;71.50;;;;;;5053205;28;20214;-83
2021/04/17 05:07:26;;;;;;;5.77;3.80;;;3.60;71.10;;;;;;5053472;28;20168;-83
2021/04/17 05:09:52;;;;;;;8.23;4.13;;;3.60;71.20;;;;;;5051588;28;20216;-84
2021/04/17 05:12:17;;;;;;;9.90;4.13;;;3.50;71.20;;;;;;5051815;28;20199;-83
2021/04/17 05:14:43;;;;;;;6.37;3.80;;;3.50;71.70;;;;;;5051790;28;20209;-83
2021/04/17 05:17:08;;;;;;;4.37;3.40;;;3.50;71.70;;;;;;5051759;28;20606;-83
2021/04/17 05:19:34;;;;;;;8.57;4.20;;;3.50;71.80;;;;;;5052881;28;20229;-83
2021/04/17 05:22:00;;;;;;;10.20;4.23;;;3.60;71.90;;;;;;5051765;28;20306;-83
2021/04/17 05:24:25;;;;;;;9.73;4.27;;;3.60;72.20;;;;;;5055913;28;20190;-84
2021/04/17 05:26:51;;;;;;;9.83;4.37;;;3.60;72.40;;;;;;5057132;28;20185;-83
2021/04/17 05:29:16;;;;;;;9.00;3.90;;;3.60;72.60;;;;;;5057051;28;20209;-83
2021/04/17 05:31:42;;;;;;;8.90;4.43;;;3.70;72.60;;;;;;5057000;28;20573;-83
2021/04/17 05:34:08;;;;;;;9.10;3.83;;;3.70;72.50;;;;;;5056918;28;20175;-83
2021/04/17 05:36:35;;;;;;;8.83;4.13;;;3.70;72.40;;;;;;5055699;28;20213;-83
2021/04/17 05:39:03;;;;;;;9.23;4.23;;;3.80;72.10;;;;;;5056921;28;20178;-83
2021/04/17 05:41:28;;;;;;;7.53;4.03;;;3.70;72.10;;;;;;5056280;28;20693;-83
2021/04/17 05:43:54;;;;;;;6.33;4.00;;;3.80;72.10;;;;;;5056865;28;20174;-83
2021/04/17 05:46:20;;;;;;;10.67;3.70;;;3.80;72.10;;;;;;5055807;28;20636;-83
2021/04/17 05:48:45;;;;;;;8.67;4.20;;;3.80;72.30;;;;;;5056693;28;20267;-84
2021/04/17 05:51:11;;;;;;;5.63;4.40;;;3.80;72.20;;;;;;5056947;28;20200;-84
2021/04/17 05:53:37;;;;;;;7.87;4.00;;;3.90;72.30;;;;;;5055370;28;20186;-83
2021/04/17 05:56:02;;;;;;;12.43;4.27;;;3.90;72.50;;;;;;5056592;28;20257;-83
2021/04/17 05:58:28;;;;;;;8.83;4.10;;;3.90;72.70;;;;;;5056577;28;20207;-83
2021/04/17 06:00:54;;;;;;;7.90;4.47;;;3.90;72.60;;;;;;5056479;28;20288;-83
2021/04/17 06:03:19;;;;;;;9.13;4.40;;;3.90;72.70;;;;;;5056564;28;20210;-83
2021/04/17 06:05:45;;;;;;;10.80;4.60;;;4.00;72.80;;;;;;5055209;28;20740;-84
2021/04/17 06:08:11;;;;;;;13.37;4.40;;;4.10;72.70;;;;;;5055196;28;20656;-84
2021/04/17 06:10:36;;;;;;;7.90;4.37;;;4.10;72.70;;;;;;5054800;28;20223;-84
2021/04/17 06:13:02;;;;;;;12.97;4.63;;;4.20;72.60;;;;;;5054972;28;20691;-83
2021/04/17 06:15:28;;;;;;;10.27;4.63;;;4.20;72.90;;;;;;5056212;28;20305;-84
2021/04/17 06:17:53;;;;;;;10.93;4.73;;;4.30;73.10;;;;;;5056252;28;20186;-84
2021/04/17 06:20:19;;;;;;;7.37;4.47;;;4.30;73.20;;;;;;5055760;28;20211;-84
2021/04/17 06:22:44;;;;;;;10.00;4.37;;;4.40;73.30;;;;;;5056051;28;20644;-84
2021/04/17 06:25:11;;;;;;;10.00;4.83;;;4.40;73.40;;;;;;5054842;28;20172;-84
2021/04/17 06:27:37;;;;;;;9.83;4.37;;;4.50;73.40;;;;;;5054819;28;20204;-84
2021/04/17 06:30:04;;;;;;;11.03;4.53;;;4.60;73.80;;;;;;5055893;28;20618;-83
2021/04/17 06:32:29;;;;;;;12.77;4.67;;;4.60;73.10;;;;;;5054521;28;20214;-84
2021/04/17 06:34:55;;;;;;;8.10;4.30;;;4.80;72.60;;;;;;5055651;28;20168;-84
2021/04/17 06:37:21;;;;;;;7.23;4.63;;;4.80;72.70;;;;;;5055928;28;20176;-84
2021/04/17 06:39:46;;;;;;;7.30;4.03;;;4.90;72.90;;;;;;5054583;28;20179;-84
2021/04/17 06:42:15;;;;;;;7.97;4.63;;;5.00;72.40;;;;;;5054575;28;20638;-84
2021/04/17 06:44:42;;;;;;;11.50;4.50;;;5.10;71.90;;;;;;5054495;28;20184;-84
2021/04/17 06:47:10;;;;;;;7.63;4.27;;;5.20;71.60;;;;;;5054341;28;20184;-83
2021/04/17 06:49:37;;;;;;;10.07;4.53;;;5.30;71.60;;;;;;5054210;28;20188;-84
2021/04/17 06:52:04;;;;;;;8.50;4.13;;;5.40;71.80;;;;;;5055731;28;20561;-84
2021/04/17 06:54:30;;;;;;;13.77;4.20;;;5.50;70.70;;;;;;5054360;28;20258;-83
2021/04/17 06:56:56;;;;;;;7.23;3.90;;;5.60;70.60;;;;;;5080805;22;20255;-89
2021/04/17 06:59:22;;;;;;;7.43;4.10;;;5.70;70.60;;;;;;5054649;28;20650;-89
2021/04/17 07:01:49;;;;;;;13.83;4.67;;;5.70;70.10;;;;;;5055219;28;20234;-89
2021/04/17 07:04:15;;;;;;;9.20;3.90;;;5.70;70.40;;;;;;5054785;28;20180;-89
2021/04/17 07:06:41;;;;;;;8.97;3.90;;;5.70;71.40;;;;;;5054304;28;20192;-89
2021/04/17 07:09:07;;;;;;;10.13;4.13;;;5.80;71.20;;;;;;5054371;28;20283;-89
2021/04/17 07:11:33;;;;;;;11.53;4.27;;;5.80;71.20;;;;;;5054274;28;20196;-89
2021/04/17 07:14:14;;;;;;;9.00;3.90;;;5.70;71.60;;;;;;5055911;28;20175;-89
2021/04/17 07:17:01;;;;;;;6.57;4.20;;;5.80;71.20;;;;;;5055502;28;20631;-89
2021/04/17 07:19:49;;;;;;;13.17;3.63;;;5.80;71.50;;;;;;5055457;28;20218;-89
2021/04/17 07:22:21;;;;;;;10.97;4.50;;;5.80;71.50;;;;;;5054189;28;20256;-89
2021/04/17 07:24:50;;;;;;;7.87;3.63;;;5.90;71.50;;;;;;5055355;28;20165;-89
2021/04/17 07:27:41;;;;;;;8.63;3.63;;;6.00;70.70;;;;;;5055343;28;20243;-89
2021/04/17 07:30:15;;;;;;;11.77;4.93;;;6.10;70.50;;;;;;5055271;28;20179;-89
2021/04/17 07:32:48;;;;;;;10.50;3.80;;;6.20;69.90;;;;;;5055679;28;20168;-89
2021/04/17 07:35:18;;;;;;;8.30;3.97;;;6.30;69.30;;;;;;5054067;28;20746;-89
2021/04/17 07:37:46;;;;;;;9.67;4.03;;;6.40;69.50;;;;;;5054281;28;20197;-89
2021/04/17 07:40:26;;;;;;;10.60;3.90;;;6.40;69.50;;;;;;5053904;28;20594;-89
2021/04/17 07:42:54;;;;;;;10.83;4.27;;;6.40;69.80;;;;;;5054284;28;20174;-89
2021/04/17 07:45:23;;;;;;;7.13;4.07;;;6.50;70.40;;;;;;5052770;28;20261;-89
2021/04/17 07:47:50;;;;;;;12.63;4.20;;;6.60;69.90;;;;;;5053811;28;20194;-89
2021/04/17 07:50:18;;;;;;;9.43;4.60;;;6.70;70.10;;;;;;5053719;28;20184;-89
2021/04/17 07:52:45;;;;;;;7.67;3.90;;;6.70;69.80;;;;;;5053728;28;20184;-90
2021/04/17 07:55:14;;;;;;;9.10;3.73;;;6.80;70.70;;;;;;5053714;28;20203;-89
2021/04/17 07:57:52;;;;;;;7.87;3.87;;;7.00;71.30;;;;;;5054837;28;20203;-89
2021/04/17 08:00:20;;;;;;;8.18;4.93;;;7.20;71.60;;;;;;5054017;28;20401;-88
2021/04/17 08:02:48;;;;;;;7.20;4.13;;;7.20;70.30;;;;;;5054473;28;20200;-92
2021/04/17 08:05:14;;;;;;;9.10;4.40;;;7.30;69.40;;;;;;5055673;28;20165;-89
2021/04/17 08:07:40;;;;;;;10.77;4.47;;;7.30;69.00;;;;;;5054194;28;20590;-89
2021/04/17 08:10:08;;;;;;;9.37;4.03;;;7.40;69.20;;;;;;5054570;28;20168;-89
2021/04/17 08:12:36;;;;;;;9.70;4.07;;;7.50;69.90;;;;;;5053654;28;20207;-89
2021/04/17 08:15:04;;;;;;;12.90;4.10;;;7.50;68.20;;;;;;5053372;28;20168;-89
2021/04/17 08:17:29;;;;;;;5.93;3.73;;;7.50;68.80;;;;;;5054621;28;20194;-88
2021/04/17 08:19:57;;;;;;;7.33;3.80;;;7.60;69.80;;;;;;5053632;28;20168;-89
2021/04/17 08:22:25;;;;;;;7.33;3.57;;;7.60;67.90;;;;;;5054228;28;20164;-89
2021/04/17 08:24:52;;;;;;;9.87;4.00;;;7.60;68.00;;;;;;5052986;28;20176;-89
2021/04/17 08:27:18;;;;;;;10.00;4.03;;;7.80;68.20;;;;;;5053249;28;20696;-89
2021/04/17 08:29:50;;;;;;;12.20;4.10;;;7.90;67.20;;;;;;5054028;28;20203;-89
2021/04/17 08:32:22;;;;;;;10.00;3.77;;;7.90;65.40;;;;;;5054480;28;20191;-89
2021/04/17 08:35:04;;;;;;;7.13;3.50;;;8.00;65.90;;;;;;5053191;28;20229;-89
2021/04/17 08:37:32;;;;;;;6.20;3.47;;;8.00;65.80;;;;;;5052821;28;20586;-89
2021/04/17 08:40:00;;;;;;;9.33;3.73;;;7.90;63.80;;;;;;5053149;28;20234;-89
2021/04/17 08:42:44;;;;;;;6.53;3.50;;;7.90;64.60;;;;;;5054798;28;20521;-89
2021/04/17 08:45:16;;;;;;;11.13;3.60;;;7.90;64.10;;;;;;5053322;28;20175;-90
2021/04/17 08:47:49;;;;;;;10.80;4.43;;;7.80;65.20;;;;;;5053020;28;20207;-89
2021/04/17 08:50:28;;;;;;;9.60;3.03;;;7.90;64.50;;;;;;5053118;28;20181;-89
2021/04/17 08:52:56;;;;;;;9.50;3.50;;;7.80;64.70;;;;;;5052647;28;20160;-89
2021/04/17 08:55:23;;;;;;;11.20;3.60;;;7.90;64.90;;;;;;5052603;28;20170;-90
2021/04/17 08:58:17;;;;;;;5.63;3.30;;;7.80;64.70;;;;;;5053813;28;20600;-89
2021/04/17 09:01:10;;;;;;;9.10;3.67;;;7.80;65.10;;;;;;5052871;28;20176;-89
2021/04/17 09:03:44;;;;;;;8.67;3.83;;;7.90;66.40;;;;;;5052714;28;20168;-89
2021/04/17 09:06:32;;;;;;;7.87;3.17;;;8.10;65.00;;;;;;5053092;28;20203;-89
2021/04/17 09:09:16;;;;;;;8.07;3.30;;;8.00;62.80;;;;;;5052294;28;20187;-89
2021/04/17 09:11:50;;;;;;;7.07;3.30;;;8.10;63.30;;;;;;5052041;28;20249;-89
2021/04/17 09:14:34;;;;;;;7.10;3.80;;;8.10;63.80;;;;;;5053119;28;20160;-89
2021/04/17 09:17:06;;;;;;;7.93;3.70;;;8.10;62.90;;;;;;5052298;28;20593;-89
2021/04/17 09:19:41;;;;;;;6.33;3.37;;;8.10;62.80;;;;;;5052223;28;20202;-89
2021/04/17 09:22:24;;;;;;;6.77;3.27;;;8.20;63.50;;;;;;5053897;28;20174;-89
2021/04/17 09:24:55;;;;;;;6.27;2.90;;;8.30;61.70;;;;;;5052737;28;20195;-90
2021/04/17 09:27:32;;;;;;;5.13;3.63;;;8.20;61.70;;;;;;5052710;28;20577;-89
2021/04/17 09:30:13;;;;;;;9.30;3.40;;;8.20;62.30;;;;;;5053407;28;20502;-89
2021/04/17 09:32:55;;;;;;;5.80;3.47;;;8.20;63.50;;;;;;5052651;28;20191;-89
2021/04/17 09:35:25;;;;;;;4.80;3.63;;;8.30;63.30;;;;;;5053748;28;20153;-90
2021/04/17 09:37:54;;;;;;;10.17;3.57;;;8.50;62.60;;;;;;5053167;28;20580;-90
2021/04/17 09:40:48;;;;;;;6.37;3.60;;;8.50;63.60;;;;;;5052811;28;20168;-89
2021/04/17 09:43:32;;;;;;;7.63;3.33;;;8.60;61.50;;;;;;5052777;28;20188;-88
2021/04/17 09:46:00;;;;;;;6.40;3.57;;;8.50;62.40;;;;;;5051981;28;20196;-88
2021/04/17 09:48:27;;;;;;;7.47;3.83;;;8.60;61.60;;;;;;5053317;28;20646;-89
2021/04/17 09:50:57;;;;;;;8.07;3.53;;;8.70;61.30;;;;;;5051977;28;20200;-90
2021/04/17 09:53:29;;;;;;;3.90;2.90;;;8.80;62.10;;;;;;5052771;28;20148;-87
2021/04/17 09:55:58;;;;;;;7.40;3.17;;;8.90;62.40;;;;;;5052699;28;20246;-87
2021/04/17 09:58:29;;;;;;;6.77;3.37;;;8.90;60.30;;;;;;5051678;28;20169;-87
2021/04/17 10:00:56;;;;;;;8.27;3.40;;;8.80;60.20;;;;;;5051615;28;20550;-87
2021/04/17 10:03:30;;;;;;;7.03;3.40;;;9.00;60.70;;;;;;5052749;28;20168;-87
2021/04/17 10:05:56;;;;;;;7.53;3.47;;;9.20;60.80;;;;;;5051463;28;20200;-87
2021/04/17 10:08:26;;;;;;;6.63;3.60;;;9.30;60.20;;;;;;5052333;28;20611;-87
2021/04/17 10:10:52;;;;;;;5.70;3.00;;;9.40;58.90;;;;;;5055160;28;20255;-87
2021/04/17 10:13:39;;;;;;;5.50;3.30;;;9.50;58.50;;;;;;5056651;28;20587;-87
2021/04/17 10:16:05;;;;;;;7.23;3.13;;;9.40;59.80;;;;;;5056692;28;20598;-87
2021/04/17 10:18:31;;;;;;;8.57;3.27;;;9.60;59.50;;;;;;5055029;28;20198;-87
2021/04/17 10:20:57;;;;;;;7.13;3.10;;;9.70;60.30;;;;;;5056916;28;20222;-90
2021/04/17 10:23:23;;;;;;;5.20;2.53;;;9.80;59.60;;;;;;5056616;28;20540;-90
2021/04/17 10:25:48;;;;;;;4.33;3.47;;;9.70;57.50;;;;;;5056560;28;20188;-89
2021/04/17 10:28:17;;;;;;;6.37;3.57;;;9.80;57.90;;;;;;5057246;28;20223;-90
2021/04/17 10:30:45;;;;;;;5.20;3.07;;;9.70;57.90;;;;;;5058111;28;20192;-90
2021/04/17 10:33:16;;;;;;;5.07;3.03;;;10.10;57.80;;;;;;5056239;28;20641;-90
2021/04/17 10:35:43;;;;;;;4.30;3.03;;;10.30;57.00;;;;;;5056554;28;20166;-90
2021/04/17 10:38:08;;;;;;;6.73;3.03;;;10.40;57.40;;;;;;5056801;28;20169;-90
2021/04/17 10:40:34;;;;;;;12.33;3.13;;;10.70;56.90;;;;;;5056708;28;20164;-90
2021/04/17 10:43:06;;;;;;;4.97;3.00;;;11.30;55.30;;;;;;5055667;28;20222;-90
2021/04/17 10:45:32;;;;;;;5.87;2.83;;;11.50;53.90;;;;;;5057286;28;20156;-91
2021/04/17 10:48:25;;;;;;;6.43;2.90;;;11.50;54.60;;;;;;5055863;28;20262;-90
2021/04/17 10:51:02;;;;;;;9.23;3.13;;;11.50;55.20;;;;;;5057480;28;20196;-90
2021/04/17 10:54:01;;;;;;;4.00;2.90;;;11.90;54.40;;;;;;5056993;28;20563;-90
2021/04/17 10:56:27;;;;;;;4.63;3.30;;;12.30;52.20;;;;;;5055997;28;20239;-90
2021/04/17 10:59:04;;;;;;;6.17;3.73;;;12.80;52.50;;;;;;5056635;28;20214;-90
2021/04/17 11:01:36;;;;;;;7.00;3.23;;;12.90;51.40;;;;;;5056717;28;20162;-91
2021/04/17 11:04:02;;;;;;;4.03;3.03;;;13.20;51.80;;;;;;5055709;28;20523;-90
2021/04/17 11:06:31;;;;;;;6.20;2.50;;;13.40;49.90;;;;;;5056488;28;20191;-90
2021/04/17 11:09:17;;;;;;;4.20;2.43;;;13.60;49.00;;;;;;5056469;28;20176;-90
2021/04/17 11:12:00;;;;;;;5.80;2.57;;;13.80;47.90;;;;;;5056036;28;20543;-90
2021/04/17 11:14:28;;;;;;;4.63;2.83;;;13.20;48.40;;;;;;5055896;28;20157;-89
2021/04/17 11:16:55;;;;;;;4.47;3.07;;;12.70;50.60;;;;;;5054836;28;20188;-89
2021/04/17 11:19:28;;;;;;;5.87;2.67;;;12.50;50.80;;;;;;5054161;28;20164;-89
2021/04/17 11:22:25;;;;;;;4.67;2.50;;;12.30;50.50;;;;;;5053715;28;20168;-89
2021/04/17 11:24:56;;;;;;;9.10;3.10;;;12.70;50.40;;;;;;5045650;28;20648;-89
2021/04/17 11:27:23;;;;;;;5.87;2.40;;;13.00;51.10;;;;;;5053605;28;20673;-87
2021/04/17 11:29:48;;;;;;;5.20;2.50;;;13.40;51.40;;;;;;5055485;28;20176;-89
2021/04/17 11:32:14;;;;;;;8.20;2.83;;;13.20;50.20;;;;;;5055281;28;20245;-89
2021/04/17 11:34:44;;;;;;;3.27;2.60;;;13.50;49.70;;;;;;5054181;28;20172;-89
2021/04/17 11:37:09;;;;;;;4.23;2.67;;;13.50;47.50;;;;;;5055720;28;20607;-90
2021/04/17 11:39:35;;;;;;;8.00;3.07;;;13.00;46.40;;;;;;5053828;28;20200;-90
2021/04/17 11:42:00;;;;;;;4.83;2.37;;;13.20;49.40;;;;;;5053701;28;20225;-90
2021/04/17 11:44:26;;;;;;;3.90;2.37;;;13.70;49.10;;;;;;5054909;28;20183;-90
2021/04/17 11:46:52;;;;;;;9.67;3.33;;;14.30;46.80;;;;;;5054925;28;20192;-91
2021/04/17 11:49:17;;;;;;;4.90;2.50;;;14.50;44.90;;;;;;5054905;28;20180;-90
2021/04/17 11:51:43;;;;;;;3.90;2.67;;;13.80;45.40;;;;;;5054629;28;20203;-89
2021/04/17 11:54:09;;;;;;;9.80;3.20;;;13.80;46.00;;;;;;5054945;28;20508;-89
2021/04/17 11:56:36;;;;;;;4.43;2.10;;;14.00;47.10;;;;;;5053603;28;20677;-91
2021/04/17 11:59:02;;;;;;;5.27;2.17;;;14.10;44.60;;;;;;5054487;28;20242;-91
2021/04/17 12:01:28;;;;;;;4.93;2.30;;;14.00;43.10;;;;;;5055506;28;20176;-91
2021/04/17 12:03:54;;;;;;;4.23;2.30;;;14.20;47.20;;;;;;5054480;28;20187;-91
2021/04/17 12:06:23;;;;;;;3.20;2.23;;;14.40;44.50;;;;;;5055359;28;20192;-91
2021/04/17 12:08:49;;;;;;;4.07;2.30;;;14.20;41.60;;;;;;5054536;28;20204;-90
2021/04/17 12:11:14;;;;;;;4.00;2.20;;;13.80;45.40;;;;;;5054795;28;20242;-90
2021/04/17 12:13:40;;;;;;;5.90;2.67;;;14.00;42.10;;;;;;5054403;28;20174;-90
2021/04/17 12:16:06;;;;;;;5.77;2.20;;;13.90;41.70;;;;;;5054486;28;20191;-90
2021/04/17 12:18:31;;;;;;;3.53;2.53;;;13.90;41.50;;;;;;5053270;28;20168;-90
2021/04/17 12:20:57;;;;;;;4.03;2.33;;;14.10;43.20;;;;;;5054612;28;20255;-91
2021/04/17 12:23:23;;;;;;;4.93;2.87;;;14.00;43.50;;;;;;5053165;28;20176;-91
2021/04/17 12:25:49;;;;;;;4.17;2.13;;;14.00;43.00;;;;;;5054312;28;20597;-90
2021/04/17 12:28:14;;;;;;;7.03;2.30;;;13.90;42.10;;;;;;5052979;28;20183;-91
2021/04/17 12:30:40;;;;;;;10.27;2.70;;;14.00;42.90;;;;;;5052960;28;20265;-91
2021/04/17 12:33:08;;;;;;;2.53;2.20;;;14.30;43.50;;;;;;5054067;28;20226;-90
2021/04/17 12:35:34;;;;;;;13.27;2.70;;;14.50;42.40;;;;;;5054365;28;20178;-91
2021/04/17 12:37:59;;;;;;;9.63;2.47;;;14.80;42.90;;;;;;5054224;28;20247;-91
2021/04/17 12:40:25;;;;;;;5.50;2.10;;;14.90;39.80;;;;;;5054284;28;20172;-91
2021/04/17 12:42:50;;;;;;;4.60;2.00;;;14.80;44.30;;;;;;5054305;28;20172;-91
2021/04/17 12:45:16;;;;;;;5.30;2.20;;;15.00;42.20;;;;;;5052802;28;20176;-90
2021/04/17 12:47:43;;;;;;;7.07;2.27;;;14.80;40.60;;;;;;5052998;28;20204;-91
2021/04/17 12:50:09;;;;;;;4.67;1.90;;;14.50;39.70;;;;;;5052632;28;20270;-91
2021/04/17 12:52:36;;;;;;;4.57;2.10;;;14.30;40.70;;;;;;5052705;28;20207;-91
2021/04/17 12:55:02;;;;;;;5.20;2.50;;;14.50;42.60;;;;;;5054099;28;20172;-91
2021/04/17 12:57:28;;;;;;;3.70;2.13;;;14.60;40.30;;;;;;5053935;28;20224;-91
2021/04/17 12:59:53;;;;;;;5.73;2.40;;;14.70;40.80;;;;;;5053787;28;20176;-91